Austerlitz, New York
Current Conditions -  °F | °C
As of 11:14 PM on Friday 24 Oct 2014 (Local Time) from KPSF Reporting Station
Broken Clouds Broken Clouds  
Wind Chill: 41°   Ceiling: 3500
Heat Index: 46°   Visibility: 10mi
Dew Point: 41°   Wind: 10mph
Humidity: 83%   Direction: 300°WNW
Pressure: 29.82"   Gusts: NA
Location:  42.31°N, 73.47°W
Report Text: KPSF 250314Z AUTO 30009KT 10SM SCT028 BKN035 08/05 A2982 RMK AO2 T00780050
Loading
Personal Weather Stations






























Interactive Weather Map
Tropical Storm Tracking
New forecast layout! Learn more

10-Day Weather Forecast

Advertisements
Track Severe Weather on mobile